Time;durP1;ratioP1;P1;durP2;ratioP2;P2;SDS_P1;SDS_P2;PMS_P1;PMS_P2;Temp;Humidity;BMP_temperature;BMP_pressure;BME280_temperature;BME280_humidity;BME280_pressure;Samples;Min_cycle;Max_cycle;Signal;HPM_P1;HPM_P2
2023/08/04 00:01:20;;;;;;;3.00;0.85;;;;;;;;;;5083925;28;42251;-65
2023/08/04 00:03:48;;;;;;;1.77;0.80;;;;;;;;;;5087143;28;40359;-65
2023/08/04 00:06:16;;;;;;;2.92;0.95;;;;;;;;;;5087713;28;41618;-65
2023/08/04 00:08:44;;;;;;;1.30;0.75;;;;;;;;;;5087092;28;43042;-65
2023/08/04 00:11:12;;;;;;;1.35;0.85;;;;;;;;;;5088219;28;40315;-65
2023/08/04 00:13:41;;;;;;;1.80;1.00;;;;;;;;;;5086827;28;42787;-65
2023/08/04 00:16:10;;;;;;;2.63;1.13;;;;;;;;;;5087865;28;41465;-65
2023/08/04 00:18:38;;;;;;;3.17;0.90;;;;;;;;;;5087484;28;41762;-65
2023/08/04 00:21:06;;;;;;;1.83;0.90;;;;;;;;;;5087016;28;43152;-66
2023/08/04 00:23:34;;;;;;;1.27;0.80;;;;;;;;;;5087320;28;41049;-65
2023/08/04 00:26:02;;;;;;;2.65;0.90;;;;;;;;;;5088016;28;41055;-65
2023/08/04 00:28:30;;;;;;;1.95;0.80;;;;;;;;;;5086533;28;42293;-65
2023/08/04 00:30:59;;;;;;;1.92;0.98;;;;;;;;;;5086408;28;38690;-65
2023/08/04 00:33:27;;;;;;;1.75;0.70;;;;;;;;;;5087277;28;42681;-65
2023/08/04 00:35:55;;;;;;;2.72;0.90;;;;;;;;;;5087530;28;41336;-65
2023/08/04 00:38:23;;;;;;;1.10;0.70;;;;;;;;;;5087024;28;40067;-65
2023/08/04 00:40:51;;;;;;;0.90;0.50;;;;;;;;;;5088513;28;41933;-65
2023/08/04 00:43:19;;;;;;;2.47;0.70;;;;;;;;;;5090825;28;40190;-65
2023/08/04 00:45:47;;;;;;;0.93;0.63;;;;;;;;;;5090957;28;41531;-65
2023/08/04 00:48:26;;;;;;;3.75;0.70;;;;;;;;;;5089047;28;41249;-66
2023/08/04 00:50:57;;;;;;;1.52;0.60;;;;;;;;;;5090382;28;39976;-67
2023/08/04 00:53:26;;;;;;;0.80;0.52;;;;;;;;;;5089661;28;42357;-66
2023/08/04 00:55:54;;;;;;;2.65;0.88;;;;;;;;;;5089093;28;41322;-66
2023/08/04 00:58:22;;;;;;;1.02;0.60;;;;;;;;;;5089412;28;40775;-66
2023/08/04 01:00:50;;;;;;;1.92;0.80;;;;;;;;;;5090600;28;42107;-66
2023/08/04 01:03:17;;;;;;;1.25;0.70;;;;;;;;;;5090681;28;40154;-66
2023/08/04 01:05:48;;;;;;;1.30;0.70;;;;;;;;;;5090356;28;41365;-67
2023/08/04 01:08:18;;;;;;;1.38;0.80;;;;;;;;;;5085718;28;41473;-66
2023/08/04 01:10:49;;;;;;;1.67;0.70;;;;;;;;;;5089577;28;41255;-66
2023/08/04 01:13:20;;;;;;;1.05;0.60;;;;;;;;;;5090151;28;41577;-67
2023/08/04 01:15:48;;;;;;;0.60;0.40;;;;;;;;;;5089231;28;41534;-66
2023/08/04 01:18:19;;;;;;;0.93;0.50;;;;;;;;;;5089278;28;40063;-66
2023/08/04 01:20:48;;;;;;;2.05;0.60;;;;;;;;;;5090750;28;42378;-66
2023/08/04 01:23:18;;;;;;;0.77;0.52;;;;;;;;;;5088231;28;39700;-66
2023/08/04 01:25:46;;;;;;;0.77;0.52;;;;;;;;;;5090297;28;41880;-66
2023/08/04 01:28:15;;;;;;;2.88;0.50;;;;;;;;;;5088897;28;40828;-66
2023/08/04 01:30:43;;;;;;;0.80;0.50;;;;;;;;;;5088852;28;40487;-66
2023/08/04 01:33:11;;;;;;;0.30;0.30;;;;;;;;;;5090571;28;42011;-66
2023/08/04 01:35:40;;;;;;;0.98;0.50;;;;;;;;;;5089827;28;42642;-66
2023/08/04 01:38:08;;;;;;;0.95;0.60;;;;;;;;;;5089096;28;40921;-66
2023/08/04 01:40:38;;;;;;;0.52;0.45;;;;;;;;;;5088719;28;41621;-66
2023/08/04 01:43:06;;;;;;;0.68;0.50;;;;;;;;;;5090269;28;40328;-67
2023/08/04 01:45:34;;;;;;;0.70;0.52;;;;;;;;;;5089130;28;41703;-67
2023/08/04 01:48:02;;;;;;;0.65;0.40;;;;;;;;;;5089107;28;42140;-66
2023/08/04 01:50:30;;;;;;;1.65;0.60;;;;;;;;;;5089093;28;40549;-66
2023/08/04 01:52:58;;;;;;;1.10;0.50;;;;;;;;;;5087908;28;39640;-66
2023/08/04 01:55:26;;;;;;;0.98;0.50;;;;;;;;;;5089897;28;41920;-66
2023/08/04 01:57:55;;;;;;;0.98;0.45;;;;;;;;;;5088958;28;39322;-66
2023/08/04 02:00:23;;;;;;;1.50;0.70;;;;;;;;;;5089128;28;42508;-67
2023/08/04 02:02:51;;;;;;;0.90;0.50;;;;;;;;;;5089782;28;39637;-66
2023/08/04 02:05:19;;;;;;;1.02;0.43;;;;;;;;;;5087497;28;40709;-66
2023/08/04 02:07:47;;;;;;;0.70;0.40;;;;;;;;;;5089847;28;42305;-66
2023/08/04 02:10:15;;;;;;;1.98;0.60;;;;;;;;;;5090059;28;39999;-66
2023/08/04 02:12:43;;;;;;;1.27;0.50;;;;;;;;;;5088209;28;41014;-66
2023/08/04 02:15:13;;;;;;;0.85;0.40;;;;;;;;;;5088699;28;42161;-66
2023/08/04 02:17:41;;;;;;;2.10;0.70;;;;;;;;;;5089310;28;41356;-65
2023/08/04 02:20:09;;;;;;;1.02;0.50;;;;;;;;;;5087398;28;40365;-65
2023/08/04 02:22:37;;;;;;;1.48;0.65;;;;;;;;;;5089670;28;41961;-65
2023/08/04 02:25:05;;;;;;;0.90;0.40;;;;;;;;;;5089862;28;41671;-65
2023/08/04 02:27:33;;;;;;;1.35;0.52;;;;;;;;;;5088738;28;43285;-65
2023/08/04 02:30:01;;;;;;;0.65;0.40;;;;;;;;;;5089171;28;41246;-65
2023/08/04 02:32:31;;;;;;;0.88;0.50;;;;;;;;;;5088671;28;42613;-65
2023/08/04 02:34:59;;;;;;;0.60;0.40;;;;;;;;;;5087225;28;41222;-65
2023/08/04 02:37:27;;;;;;;1.13;0.70;;;;;;;;;;5088988;28;41270;-65
2023/08/04 02:39:55;;;;;;;0.90;0.52;;;;;;;;;;5089691;28;41612;-65
2023/08/04 02:42:24;;;;;;;0.77;0.40;;;;;;;;;;5087085;28;40912;-65
2023/08/04 02:44:53;;;;;;;1.63;0.50;;;;;;;;;;5089797;28;41360;-65
2023/08/04 02:47:21;;;;;;;1.00;0.40;;;;;;;;;;5088829;28;43148;-65
2023/08/04 02:49:50;;;;;;;1.38;0.50;;;;;;;;;;5087422;28;38844;-65
2023/08/04 02:52:18;;;;;;;0.43;0.40;;;;;;;;;;5088854;28;41461;-65
2023/08/04 02:54:46;;;;;;;1.55;0.30;;;;;;;;;;5088332;28;42509;-66
2023/08/04 02:57:14;;;;;;;0.73;0.50;;;;;;;;;;5088432;28;38842;-65
2023/08/04 02:59:42;;;;;;;1.08;0.40;;;;;;;;;;5088795;28;42599;-65
2023/08/04 03:02:10;;;;;;;1.23;0.30;;;;;;;;;;5086874;28;42129;-65
2023/08/04 03:04:39;;;;;;;1.13;0.40;;;;;;;;;;5088492;28;41517;-65
2023/08/04 03:07:08;;;;;;;1.45;0.40;;;;;;;;;;5089651;28;41839;-65
2023/08/04 03:09:36;;;;;;;0.65;0.40;;;;;;;;;;5087863;28;40325;-65
2023/08/04 03:12:04;;;;;;;0.60;0.40;;;;;;;;;;5089356;28;41612;-65
2023/08/04 03:14:33;;;;;;;0.50;0.40;;;;;;;;;;5088353;28;41370;-65
2023/08/04 03:17:01;;;;;;;0.47;0.45;;;;;;;;;;5088374;28;40541;-65
2023/08/04 03:19:29;;;;;;;0.45;0.45;;;;;;;;;;5088180;28;41026;-65
2023/08/04 03:21:57;;;;;;;0.95;0.43;;;;;;;;;;5087403;28;40797;-65
2023/08/04 03:24:26;;;;;;;0.40;0.40;;;;;;;;;;5087564;28;40442;-65
2023/08/04 03:26:54;;;;;;;0.80;0.50;;;;;;;;;;5089188;28;42576;-65
2023/08/04 03:29:22;;;;;;;1.15;0.50;;;;;;;;;;5084426;28;41123;-65
2023/08/04 03:31:50;;;;;;;0.95;0.40;;;;;;;;;;5074643;28;40561;-65
2023/08/04 03:34:18;;;;;;;0.47;0.40;;;;;;;;;;5067874;28;43208;-65
2023/08/04 03:36:46;;;;;;;0.30;0.30;;;;;;;;;;5087337;28;40026;-65
2023/08/04 03:39:14;;;;;;;1.55;0.38;;;;;;;;;;5088532;28;41881;-65
2023/08/04 03:41:44;;;;;;;0.30;0.30;;;;;;;;;;5088034;28;42108;-65
2023/08/04 03:44:12;;;;;;;0.30;0.30;;;;;;;;;;5087787;28;40030;-65
2023/08/04 03:46:40;;;;;;;0.63;0.57;;;;;;;;;;5088058;28;42332;-65
2023/08/04 03:49:08;;;;;;;0.52;0.40;;;;;;;;;;5087087;28;40871;-65
2023/08/04 03:51:36;;;;;;;0.73;0.43;;;;;;;;;;5087504;28;39778;-65
2023/08/04 03:54:05;;;;;;;0.70;0.60;;;;;;;;;;5088468;28;43119;-65
2023/08/04 03:56:32;;;;;;;0.30;0.30;;;;;;;;;;5087797;28;41237;-65
2023/08/04 03:59:02;;;;;;;1.17;0.50;;;;;;;;;;5087784;28;41312;-65
2023/08/04 04:01:30;;;;;;;0.43;0.40;;;;;;;;;;5086634;28;41956;-65
2023/08/04 04:03:58;;;;;;;0.43;0.40;;;;;;;;;;5088134;28;40017;-65
2023/08/04 04:06:26;;;;;;;0.40;0.32;;;;;;;;;;5077984;28;42054;-65
2023/08/04 04:08:55;;;;;;;0.30;0.30;;;;;;;;;;5088448;28;43240;-65
2023/08/04 04:11:23;;;;;;;0.40;0.40;;;;;;;;;;5088277;28;41130;-65
2023/08/04 04:13:51;;;;;;;0.47;0.40;;;;;;;;;;5087125;28;41700;-65
2023/08/04 04:16:21;;;;;;;0.52;0.43;;;;;;;;;;5087879;28;39941;-65
2023/08/04 04:18:49;;;;;;;0.52;0.38;;;;;;;;;;5087334;28;41038;-65
2023/08/04 04:21:17;;;;;;;0.60;0.40;;;;;;;;;;5087834;28;43064;-65
2023/08/04 04:23:45;;;;;;;0.75;0.32;;;;;;;;;;5088176;28;40422;-65
2023/08/04 04:26:13;;;;;;;0.43;0.40;;;;;;;;;;5087613;28;42118;-65
2023/08/04 04:28:41;;;;;;;0.45;0.30;;;;;;;;;;5087688;28;42157;-65
2023/08/04 04:31:09;;;;;;;0.50;0.40;;;;;;;;;;5087532;28;40758;-65
2023/08/04 04:33:38;;;;;;;0.30;0.30;;;;;;;;;;5087368;28;42603;-65
2023/08/04 04:36:06;;;;;;;1.00;0.38;;;;;;;;;;5087663;28;40261;-65
2023/08/04 04:38:34;;;;;;;0.55;0.40;;;;;;;;;;5087199;28;41590;-65
2023/08/04 04:41:02;;;;;;;0.30;0.30;;;;;;;;;;5087050;28;42103;-65
2023/08/04 04:43:30;;;;;;;0.93;0.30;;;;;;;;;;5087076;28;40773;-65
2023/08/04 04:45:58;;;;;;;0.47;0.38;;;;;;;;;;5087687;28;42127;-65
2023/08/04 04:48:26;;;;;;;1.10;0.40;;;;;;;;;;5086585;28;41960;-65
2023/08/04 04:50:55;;;;;;;0.40;0.30;;;;;;;;;;5087689;28;41327;-65
2023/08/04 04:53:23;;;;;;;0.57;0.40;;;;;;;;;;5086764;28;41569;-66
2023/08/04 04:55:51;;;;;;;0.98;0.40;;;;;;;;;;5087176;28;42241;-65
2023/08/04 04:58:19;;;;;;;0.63;0.30;;;;;;;;;;5087239;28;41159;-65
2023/08/04 05:00:47;;;;;;;0.30;0.30;;;;;;;;;;5084923;28;41868;-65
2023/08/04 05:03:15;;;;;;;0.60;0.30;;;;;;;;;;5083970;28;40258;-65
2023/08/04 05:05:44;;;;;;;0.60;0.40;;;;;;;;;;5087266;28;42254;-65
2023/08/04 05:08:13;;;;;;;0.30;0.30;;;;;;;;;;5086402;28;42002;-65
2023/08/04 05:10:41;;;;;;;0.55;0.47;;;;;;;;;;5086573;28;40906;-65
2023/08/04 05:13:09;;;;;;;0.40;0.32;;;;;;;;;;5087511;28;42185;-65
2023/08/04 05:15:37;;;;;;;0.40;0.40;;;;;;;;;;5086368;28;41997;-66
2023/08/04 05:18:05;;;;;;;0.85;0.50;;;;;;;;;;5088258;28;40291;-65
2023/08/04 05:20:33;;;;;;;0.50;0.30;;;;;;;;;;5086333;28;42888;-65
2023/08/04 05:23:01;;;;;;;0.30;0.30;;;;;;;;;;5086330;28;41366;-65
2023/08/04 05:25:30;;;;;;;0.40;0.40;;;;;;;;;;5086634;28;41546;-65
2023/08/04 05:28:04;;;;;;;0.45;0.40;;;;;;;;;;5089785;28;42585;-65
2023/08/04 05:30:32;;;;;;;0.30;0.30;;;;;;;;;;5072342;28;40268;-65
2023/08/04 05:33:00;;;;;;;0.60;0.30;;;;;;;;;;5084873;28;41497;-65
2023/08/04 05:35:28;;;;;;;0.70;0.50;;;;;;;;;;5089545;28;42085;-65
2023/08/04 05:37:56;;;;;;;0.52;0.40;;;;;;;;;;5089193;28;40656;-65
2023/08/04 05:40:24;;;;;;;0.43;0.30;;;;;;;;;;5089518;28;42076;-65
2023/08/04 05:42:54;;;;;;;0.75;0.43;;;;;;;;;;5089903;28;39850;-65
2023/08/04 05:45:22;;;;;;;0.65;0.35;;;;;;;;;;5088710;28;42648;-65
2023/08/04 05:47:50;;;;;;;0.25;0.25;;;;;;;;;;5089553;28;42006;-65
2023/08/04 05:50:18;;;;;;;0.30;0.30;;;;;;;;;;5088882;28;40039;-65
2023/08/04 05:52:46;;;;;;;0.40;0.40;;;;;;;;;;5069657;28;42598;-65
2023/08/04 05:55:14;;;;;;;0.68;0.32;;;;;;;;;;5069656;28;42787;-65
2023/08/04 05:57:42;;;;;;;0.40;0.30;;;;;;;;;;5088678;28;40275;-66
2023/08/04 06:00:12;;;;;;;0.90;0.50;;;;;;;;;;5089775;28;41613;-65
2023/08/04 06:02:41;;;;;;;0.60;0.50;;;;;;;;;;5088541;28;32461;-65
2023/08/04 06:05:09;;;;;;;0.30;0.30;;;;;;;;;;5088904;28;43240;-65
2023/08/04 06:07:37;;;;;;;0.65;0.50;;;;;;;;;;5089155;28;42164;-65
2023/08/04 06:10:06;;;;;;;0.30;0.30;;;;;;;;;;5089298;28;40723;-65
2023/08/04 06:12:34;;;;;;;0.63;0.30;;;;;;;;;;5088651;28;42502;-65
2023/08/04 06:15:03;;;;;;;0.30;0.30;;;;;;;;;;5089738;28;42085;-65
2023/08/04 06:17:32;;;;;;;0.55;0.40;;;;;;;;;;5088757;28;40761;-65
2023/08/04 06:20:00;;;;;;;0.45;0.40;;;;;;;;;;5088811;28;41200;-65
2023/08/04 06:22:28;;;;;;;0.50;0.40;;;;;;;;;;5089035;28;42088;-65
2023/08/04 06:24:56;;;;;;;0.30;0.28;;;;;;;;;;5089040;28;41404;-65
2023/08/04 06:27:24;;;;;;;0.75;0.50;;;;;;;;;;5087813;28;42250;-65
2023/08/04 06:29:52;;;;;;;0.38;0.30;;;;;;;;;;5089116;28;40539;-65
2023/08/04 06:32:20;;;;;;;0.30;0.20;;;;;;;;;;5088306;28;41993;-66
2023/08/04 06:34:49;;;;;;;0.68;0.40;;;;;;;;;;5089166;28;42059;-65
2023/08/04 06:37:17;;;;;;;0.65;0.40;;;;;;;;;;5089185;28;41271;-65
2023/08/04 06:39:45;;;;;;;0.30;0.30;;;;;;;;;;5087540;28;42523;-65
2023/08/04 06:42:13;;;;;;;0.50;0.30;;;;;;;;;;5088216;28;41876;-65
2023/08/04 06:44:41;;;;;;;0.75;0.50;;;;;;;;;;5088119;28;40352;-65
2023/08/04 06:47:09;;;;;;;0.25;0.25;;;;;;;;;;5087842;28;41649;-65
2023/08/04 06:49:37;;;;;;;0.32;0.20;;;;;;;;;;5087953;28;39943;-65
2023/08/04 06:52:08;;;;;;;0.30;0.28;;;;;;;;;;5088924;28;43136;-65
2023/08/04 06:54:36;;;;;;;0.88;0.40;;;;;;;;;;5087268;28;42064;-65
2023/08/04 06:57:04;;;;;;;0.40;0.30;;;;;;;;;;5088560;28;40628;-65
2023/08/04 06:59:32;;;;;;;0.38;0.38;;;;;;;;;;5088741;28;42641;-65
2023/08/04 07:02:00;;;;;;;0.38;0.30;;;;;;;;;;5087839;28;43548;-65
2023/08/04 07:04:28;;;;;;;0.90;0.30;;;;;;;;;;5087861;28;41517;-65
2023/08/04 07:06:56;;;;;;;0.30;0.30;;;;;;;;;;5088717;28;41405;-65
2023/08/04 07:09:27;;;;;;;0.80;0.40;;;;;;;;;;5087756;28;39915;-65
2023/08/04 07:11:55;;;;;;;2.88;0.50;;;;;;;;;;5085551;28;41527;-64
2023/08/04 07:14:23;;;;;;;6.53;1.08;;;;;;;;;;5087784;28;41643;-64
2023/08/04 07:16:51;;;;;;;3.47;0.90;;;;;;;;;;5087665;28;41055;-64
2023/08/04 07:19:19;;;;;;;3.78;1.23;;;;;;;;;;5087510;28;41562;-64
2023/08/04 07:21:47;;;;;;;2.85;1.17;;;;;;;;;;5086991;28;42759;-64
2023/08/04 07:24:15;;;;;;;8.50;1.80;;;;;;;;;;5088280;28;40236;-63
2023/08/04 07:26:44;;;;;;;3.42;1.25;;;;;;;;;;5088090;28;42590;-64
2023/08/04 07:29:12;;;;;;;14.05;2.15;;;;;;;;;;5087763;28;43139;-63
2023/08/04 07:31:40;;;;;;;4.45;1.40;;;;;;;;;;5086953;28;41353;-67
2023/08/04 07:34:09;;;;;;;1.55;1.30;;;;;;;;;;5088141;28;42926;-67
2023/08/04 07:36:36;;;;;;;3.95;1.52;;;;;;;;;;5086259;28;39956;-67
2023/08/04 07:39:04;;;;;;;5.07;1.23;;;;;;;;;;5087314;28;41961;-67
2023/08/04 07:41:32;;;;;;;7.57;1.80;;;;;;;;;;5087350;28;42047;-67
2023/08/04 07:44:03;;;;;;;6.22;1.50;;;;;;;;;;5085255;28;40241;-67
2023/08/04 07:46:30;;;;;;;2.85;1.15;;;;;;;;;;5082549;28;42289;-66
2023/08/04 07:48:58;;;;;;;4.95;1.20;;;;;;;;;;5085058;28;42567;-66
2023/08/04 07:51:26;;;;;;;7.22;1.25;;;;;;;;;;5086175;28;39765;-68
2023/08/04 07:53:54;;;;;;;2.13;1.00;;;;;;;;;;5087015;28;42315;-64
2023/08/04 07:56:22;;;;;;;3.83;1.33;;;;;;;;;;5086791;28;41409;-64
2023/08/04 07:58:50;;;;;;;3.60;1.30;;;;;;;;;;5086649;28;41055;-64
2023/08/04 08:01:20;;;;;;;4.82;1.65;;;;;;;;;;5087117;28;42316;-64
2023/08/04 08:03:48;;;;;;;5.13;1.42;;;;;;;;;;5086627;28;40385;-64
2023/08/04 08:06:16;;;;;;;3.63;1.58;;;;;;;;;;5087500;28;42773;-64
2023/08/04 08:08:45;;;;;;;5.63;1.55;;;;;;;;;;5087217;28;42840;-64
2023/08/04 08:11:13;;;;;;;2.33;1.00;;;;;;;;;;5087617;28;40585;-64
2023/08/04 08:13:41;;;;;;;3.08;1.10;;;;;;;;;;5087446;28;43770;-64
2023/08/04 08:16:09;;;;;;;5.05;1.27;;;;;;;;;;5087809;28;40155;-64
2023/08/04 08:18:38;;;;;;;2.40;0.90;;;;;;;;;;5085537;28;40072;-64
2023/08/04 08:21:07;;;;;;;4.57;1.23;;;;;;;;;;5087825;28;41629;-64
2023/08/04 08:23:35;;;;;;;1.27;1.00;;;;;;;;;;5086978;28;40490;-65
2023/08/04 08:26:03;;;;;;;5.78;1.20;;;;;;;;;;5087172;28;41670;-65
2023/08/04 08:28:31;;;;;;;3.00;1.17;;;;;;;;;;5087098;28;42286;-65
2023/08/04 08:30:59;;;;;;;2.83;1.55;;;;;;;;;;5086570;28;38454;-69
2023/08/04 08:33:27;;;;;;;8.80;1.63;;;;;;;;;;5086616;28;42172;-68
2023/08/04 08:35:57;;;;;;;2.97;1.65;;;;;;;;;;5088324;28;40817;-69
2023/08/04 08:38:25;;;;;;;6.57;1.40;;;;;;;;;;5087088;28;42573;-65
2023/08/04 08:40:53;;;;;;;5.03;1.35;;;;;;;;;;5087360;28;43163;-68
2023/08/04 08:43:21;;;;;;;6.22;1.60;;;;;;;;;;5087552;28;40328;-64
2023/08/04 08:45:49;;;;;;;9.15;2.03;;;;;;;;;;5087323;28;41625;-64
2023/08/04 08:48:17;;;;;;;5.93;1.70;;;;;;;;;;5075657;28;43139;-64
2023/08/04 08:50:45;;;;;;;8.35;1.60;;;;;;;;;;5079274;28;40500;-66
2023/08/04 08:53:14;;;;;;;7.43;1.60;;;;;;;;;;5085312;28;41279;-66
2023/08/04 08:55:42;;;;;;;3.90;1.52;;;;;;;;;;5084251;28;41944;-65
2023/08/04 08:58:11;;;;;;;9.30;1.35;;;;;;;;;;5084942;28;42223;-64
2023/08/04 09:00:39;;;;;;;6.35;1.50;;;;;;;;;;5084633;28;41343;-64
2023/08/04 09:03:07;;;;;;;5.32;1.50;;;;;;;;;;5086908;28;39961;-64
2023/08/04 09:05:35;;;;;;;6.18;1.63;;;;;;;;;;5088752;28;41675;-64
2023/08/04 09:08:04;;;;;;;6.78;1.38;;;;;;;;;;5086698;28;42798;-64
2023/08/04 09:10:36;;;;;;;3.25;1.48;;;;;;;;;;5088714;28;41193;-64
2023/08/04 09:13:07;;;;;;;3.97;1.33;;;;;;;;;;5084130;28;41172;-64
2023/08/04 09:15:35;;;;;;;5.00;1.42;;;;;;;;;;5087633;28;41576;-64
2023/08/04 09:18:06;;;;;;;10.82;1.73;;;;;;;;;;5088258;28;40278;-64
2023/08/04 09:20:34;;;;;;;4.15;1.27;;;;;;;;;;5084772;28;40969;-64
2023/08/04 09:23:02;;;;;;;4.65;1.42;;;;;;;;;;5087872;28;39324;-65
2023/08/04 09:25:30;;;;;;;4.03;1.40;;;;;;;;;;5086055;28;41824;-64
2023/08/04 09:28:00;;;;;;;4.72;1.70;;;;;;;;;;5087279;28;42272;-63
2023/08/04 09:30:28;;;;;;;3.85;1.23;;;;;;;;;;5079023;28;39923;-64
2023/08/04 09:32:56;;;;;;;5.68;1.33;;;;;;;;;;5086764;28;41148;-64
2023/08/04 09:35:24;;;;;;;4.40;1.08;;;;;;;;;;5085905;28;41793;-64
2023/08/04 09:37:54;;;;;;;2.30;1.33;;;;;;;;;;5088625;28;39447;-65
2023/08/04 09:40:22;;;;;;;2.83;1.35;;;;;;;;;;5087980;28;42229;-64
2023/08/04 09:42:50;;;;;;;5.43;1.63;;;;;;;;;;5084678;28;41351;-64
2023/08/04 09:45:19;;;;;;;2.85;1.20;;;;;;;;;;5082782;28;41824;-64
2023/08/04 09:47:48;;;;;;;3.65;1.30;;;;;;;;;;5086220;28;41974;-65
2023/08/04 09:50:17;;;;;;;3.83;1.20;;;;;;;;;;5086670;28;39896;-64
2023/08/04 09:52:45;;;;;;;9.63;1.42;;;;;;;;;;5086879;28;40794;-65
2023/08/04 09:55:13;;;;;;;6.85;1.40;;;;;;;;;;5087996;28;42805;-65
2023/08/04 09:57:41;;;;;;;10.13;2.03;;;;;;;;;;5088270;28;40416;-65
2023/08/04 10:00:11;;;;;;;6.32;1.67;;;;;;;;;;5087157;28;41872;-65
2023/08/04 10:02:41;;;;;;;4.57;1.50;;;;;;;;;;5088386;28;42094;-65
2023/08/04 10:05:09;;;;;;;1.70;1.30;;;;;;;;;;5086882;28;41628;-64
2023/08/04 10:07:38;;;;;;;3.08;1.25;;;;;;;;;;5088391;28;42213;-65
2023/08/04 10:10:07;;;;;;;2.13;1.52;;;;;;;;;;5086204;28;40879;-65
2023/08/04 10:12:35;;;;;;;3.88;1.10;;;;;;;;;;5086666;28;41693;-65
2023/08/04 10:15:05;;;;;;;4.13;1.50;;;;;;;;;;5087897;28;43252;-65
2023/08/04 10:17:33;;;;;;;5.88;1.40;;;;;;;;;;5087085;28;40096;-65
2023/08/04 10:20:03;;;;;;;8.93;1.33;;;;;;;;;;5088143;28;41882;-65
2023/08/04 10:22:32;;;;;;;2.50;1.30;;;;;;;;;;5085910;28;41785;-65
2023/08/04 10:25:00;;;;;;;4.63;1.20;;;;;;;;;;5087393;28;41598;-65
2023/08/04 10:27:28;;;;;;;5.07;1.50;;;;;;;;;;5085452;28;41956;-65
2023/08/04 10:30:03;;;;;;;12.13;2.22;;;;;;;;;;5089173;28;40070;-65
2023/08/04 10:32:34;;;;;;;4.20;1.17;;;;;;;;;;5084893;28;41790;-65
2023/08/04 10:35:04;;;;;;;6.65;1.63;;;;;;;;;;5087995;28;42246;-65
2023/08/04 10:37:32;;;;;;;6.18;1.30;;;;;;;;;;5081790;28;40257;-63
2023/08/04 10:40:02;;;;;;;3.72;1.48;;;;;;;;;;5086755;28;42302;-64
2023/08/04 10:42:30;;;;;;;5.85;1.27;;;;;;;;;;5082775;28;42847;-68
2023/08/04 10:45:04;;;;;;;2.33;1.40;;;;;;;;;;5087206;28;40991;-68
2023/08/04 10:47:33;;;;;;;2.35;1.20;;;;;;;;;;5083373;28;42673;-68
2023/08/04 10:50:03;;;;;;;2.55;1.55;;;;;;;;;;5085690;28;40371;-67
2023/08/04 10:52:32;;;;;;;1.33;0.95;;;;;;;;;;5080315;28;41732;-66
2023/08/04 10:55:02;;;;;;;4.97;1.20;;;;;;;;;;5083812;28;42849;-66
2023/08/04 10:57:31;;;;;;;3.42;1.33;;;;;;;;;;5080379;28;40097;-66
2023/08/04 10:59:59;;;;;;;2.30;1.20;;;;;;;;;;5082600;28;41707;-67
2023/08/04 11:02:27;;;;;;;3.40;1.23;;;;;;;;;;5085743;28;42136;-66
2023/08/04 11:04:56;;;;;;;2.80;1.33;;;;;;;;;;5088101;28;40308;-66
2023/08/04 11:07:24;;;;;;;2.33;1.17;;;;;;;;;;5085340;28;42031;-66
2023/08/04 11:09:54;;;;;;;6.25;1.65;;;;;;;;;;5087737;28;40060;-68
2023/08/04 11:12:22;;;;;;;2.55;1.33;;;;;;;;;;5085817;28;41399;-69
2023/08/04 11:14:50;;;;;;;7.13;1.60;;;;;;;;;;5085056;28;41091;-67
2023/08/04 11:17:19;;;;;;;2.88;1.42;;;;;;;;;;5086220;28;41854;-67
2023/08/04 11:19:47;;;;;;;7.97;1.40;;;;;;;;;;5084297;28;42650;-70
2023/08/04 11:22:16;;;;;;;3.85;1.23;;;;;;;;;;5085903;28;42719;-70
2023/08/04 11:24:44;;;;;;;3.75;1.20;;;;;;;;;;5085613;28;40402;-71
2023/08/04 11:27:15;;;;;;;2.97;1.10;;;;;;;;;;5087640;28;40949;-71
2023/08/04 11:29:43;;;;;;;2.75;0.90;;;;;;;;;;5085535;28;42164;-70
2023/08/04 11:32:11;;;;;;;2.08;1.05;;;;;;;;;;5087002;28;42189;-70
2023/08/04 11:34:39;;;;;;;3.15;1.27;;;;;;;;;;5085557;28;42668;-71
2023/08/04 11:37:07;;;;;;;2.05;1.08;;;;;;;;;;5086103;28;40101;-70
2023/08/04 11:39:37;;;;;;;5.53;1.48;;;;;;;;;;5084143;28;41989;-70
2023/08/04 11:42:09;;;;;;;1.58;1.00;;;;;;;;;;5085251;28;41649;-70
2023/08/04 11:44:39;;;;;;;2.40;1.27;;;;;;;;;;5086253;28;40385;-71
2023/08/04 11:47:08;;;;;;;4.60;1.40;;;;;;;;;;5082405;28;41452;-71
2023/08/04 11:49:36;;;;;;;1.88;1.00;;;;;;;;;;5086648;28;42461;-71
2023/08/04 11:52:08;;;;;;;2.63;1.33;;;;;;;;;;5086246;28;40450;-70
2023/08/04 11:54:35;;;;;;;3.55;1.17;;;;;;;;;;5086990;28;42148;-71
2023/08/04 11:57:04;;;;;;;3.72;1.20;;;;;;;;;;5085609;28;40243;-68
2023/08/04 11:59:32;;;;;;;3.85;1.38;;;;;;;;;;5086621;28;42274;-68
2023/08/04 12:02:10;;;;;;;5.22;2.10;;;;;;;;;;5085082;28;42240;-68
2023/08/04 12:04:38;;;;;;;2.75;1.50;;;;;;;;;;5076989;28;40509;-68
2023/08/04 12:07:07;;;;;;;4.95;1.20;;;;;;;;;;5085932;28;41421;-68
2023/08/04 12:09:35;;;;;;;4.07;1.25;;;;;;;;;;5085391;28;41901;-68
2023/08/04 12:12:03;;;;;;;4.93;1.60;;;;;;;;;;5086250;28;40147;-68
2023/08/04 12:14:31;;;;;;;3.45;1.55;;;;;;;;;;5085123;28;41667;-69
2023/08/04 12:17:12;;;;;;;2.40;1.35;;;;;;;;;;5085559;28;40243;-68
2023/08/04 12:19:40;;;;;;;6.60;1.50;;;;;;;;;;5084816;28;41523;-68
2023/08/04 12:22:08;;;;;;;4.03;1.45;;;;;;;;;;5086349;28;41529;-69
2023/08/04 12:24:36;;;;;;;2.63;1.25;;;;;;;;;;5086550;28;41331;-68
2023/08/04 12:27:05;;;;;;;5.18;1.20;;;;;;;;;;5088197;28;41382;-67
2023/08/04 12:29:33;;;;;;;6.28;1.17;;;;;;;;;;5086486;28;41814;-67
2023/08/04 12:32:01;;;;;;;2.88;1.23;;;;;;;;;;5086934;28;40031;-67
2023/08/04 12:34:30;;;;;;;4.10;1.30;;;;;;;;;;5087819;28;42299;-67
2023/08/04 12:36:58;;;;;;;2.65;1.50;;;;;;;;;;5090296;28;40221;-67
2023/08/04 12:39:28;;;;;;;3.28;1.20;;;;;;;;;;5089910;28;41532;-67
2023/08/04 12:41:56;;;;;;;3.60;1.27;;;;;;;;;;5090200;28;41919;-67
2023/08/04 12:44:24;;;;;;;5.05;1.40;;;;;;;;;;5090985;28;40778;-67
2023/08/04 12:46:52;;;;;;;4.70;1.45;;;;;;;;;;5089878;28;41987;-67
2023/08/04 12:49:20;;;;;;;2.67;1.30;;;;;;;;;;5089854;28;42069;-68
2023/08/04 12:51:50;;;;;;;3.50;1.48;;;;;;;;;;5090513;28;40872;-67
2023/08/04 12:54:18;;;;;;;2.65;1.30;;;;;;;;;;5090117;28;42345;-67
2023/08/04 12:56:46;;;;;;;2.45;1.50;;;;;;;;;;5090390;28;42417;-67
2023/08/04 12:59:14;;;;;;;5.05;1.45;;;;;;;;;;5089948;28;41430;-67
2023/08/04 13:01:42;;;;;;;3.95;1.50;;;;;;;;;;5089564;28;42496;-67
2023/08/04 13:04:10;;;;;;;5.18;1.75;;;;;;;;;;5091090;28;41331;-67
2023/08/04 13:06:38;;;;;;;4.47;1.45;;;;;;;;;;5089230;28;41333;-67
2023/08/04 13:09:07;;;;;;;2.53;1.17;;;;;;;;;;5090604;28;43275;-67
2023/08/04 13:11:35;;;;;;;3.10;1.45;;;;;;;;;;5089904;28;40062;-67
2023/08/04 13:14:03;;;;;;;2.58;1.10;;;;;;;;;;5090233;28;42880;-67
2023/08/04 13:16:31;;;;;;;2.83;1.33;;;;;;;;;;5089938;28;42273;-67
2023/08/04 13:18:59;;;;;;;4.35;1.52;;;;;;;;;;5091206;28;39488;-67
2023/08/04 13:21:27;;;;;;;2.70;1.23;;;;;;;;;;5088483;28;41765;-67
2023/08/04 13:23:55;;;;;;;2.50;1.13;;;;;;;;;;5090248;28;40551;-67
2023/08/04 13:26:25;;;;;;;2.47;1.20;;;;;;;;;;5089635;28;42246;-67
2023/08/04 13:28:53;;;;;;;2.80;1.30;;;;;;;;;;5089578;28;43203;-68
2023/08/04 13:31:21;;;;;;;2.13;1.20;;;;;;;;;;5089379;28;40655;-67
2023/08/04 13:33:49;;;;;;;2.38;1.27;;;;;;;;;;5090104;28;42566;-68
2023/08/04 13:36:17;;;;;;;2.45;1.33;;;;;;;;;;5088597;28;42242;-66
2023/08/04 13:38:45;;;;;;;3.47;1.20;;;;;;;;;;5089752;28;42253;-67
2023/08/04 13:41:13;;;;;;;1.77;1.05;;;;;;;;;;5090288;28;42246;-67
2023/08/04 13:43:43;;;;;;;2.75;1.25;;;;;;;;;;5088968;28;39735;-67
2023/08/04 13:46:12;;;;;;;1.48;1.00;;;;;;;;;;5088885;28;39631;-67
2023/08/04 13:48:40;;;;;;;2.17;1.10;;;;;;;;;;5088946;28;42149;-67
2023/08/04 13:51:08;;;;;;;5.40;1.40;;;;;;;;;;5089865;28;40481;-67
2023/08/04 13:53:48;;;;;;;2.40;1.17;;;;;;;;;;5086761;28;41460;-68
2023/08/04 13:56:16;;;;;;;2.75;1.25;;;;;;;;;;5089230;28;42344;-68
2023/08/04 13:58:45;;;;;;;2.70;1.27;;;;;;;;;;5089578;28;40422;-67
2023/08/04 14:01:13;;;;;;;3.95;1.27;;;;;;;;;;5088601;28;42592;-67
2023/08/04 14:03:42;;;;;;;3.53;1.50;;;;;;;;;;5089180;28;42659;-67
2023/08/04 14:06:10;;;;;;;2.17;1.00;;;;;;;;;;5088968;28;41648;-67
2023/08/04 14:08:38;;;;;;;2.53;1.15;;;;;;;;;;5088997;28;42420;-67
2023/08/04 14:11:06;;;;;;;2.60;1.30;;;;;;;;;;5088495;28;40001;-67
2023/08/04 14:13:34;;;;;;;3.50;1.27;;;;;;;;;;5089151;28;41912;-67
2023/08/04 14:16:09;;;;;;;1.55;1.10;;;;;;;;;;5089450;28;42072;-67
2023/08/04 14:18:37;;;;;;;2.28;1.13;;;;;;;;;;5085116;28;40386;-67
2023/08/04 14:21:05;;;;;;;2.08;1.10;;;;;;;;;;5089229;28;42224;-68
2023/08/04 14:23:33;;;;;;;4.20;1.00;;;;;;;;;;5088531;28;42487;-67
2023/08/04 14:26:02;;;;;;;2.05;1.00;;;;;;;;;;5089352;28;41315;-68
2023/08/04 14:28:30;;;;;;;3.15;1.05;;;;;;;;;;5088753;28;42873;-67
2023/08/04 14:30:58;;;;;;;1.52;0.80;;;;;;;;;;5088189;28;41120;-67
2023/08/04 14:33:28;;;;;;;2.03;1.10;;;;;;;;;;5088319;28;41655;-67
2023/08/04 14:35:56;;;;;;;1.35;0.98;;;;;;;;;;5088711;28;42370;-67
2023/08/04 14:38:23;;;;;;;1.67;1.02;;;;;;;;;;5088200;28;41339;-67
2023/08/04 14:40:52;;;;;;;2.00;1.30;;;;;;;;;;5088980;28;42372;-67
2023/08/04 14:43:20;;;;;;;2.80;1.00;;;;;;;;;;5088518;28;42084;-67
2023/08/04 14:45:48;;;;;;;10.93;1.25;;;;;;;;;;5088247;28;39722;-66
2023/08/04 14:48:16;;;;;;;13.38;2.03;;;;;;;;;;5088934;28;42098;-66
2023/08/04 14:50:45;;;;;;;7.72;1.65;;;;;;;;;;5088074;28;40546;-66